Time;durP1;ratioP1;P1;durP2;ratioP2;P2;SDS_P1;SDS_P2;PMS_P1;PMS_P2;Temp;Humidity;BMP_temperature;BMP_pressure;BME280_temperature;BME280_humidity;BME280_pressure;Samples;Min_cycle;Max_cycle;Signal;HPM_P1;HPM_P2
2021/12/19 00:00:28;;;;;;;1.17;1.17;;;;;;;1.40;64.25;94984.84;2615197;54;20161;-71
2021/12/19 00:03:31;;;;;;;1.70;1.17;;;;;;;2.16;64.77;95059.97;2615584;54;20145;-71
2021/12/19 00:08:49;;;;;;;0.40;0.40;;;;;;;2.47;60.46;95018.78;2614312;47;20246;-71
2021/12/19 00:11:26;;;;;;;3.73;1.87;;;;;;;2.08;60.97;95023.78;2614914;54;20152;-70
2021/12/19 00:13:56;;;;;;;0.50;0.50;;;;;;;2.44;62.40;95050.75;2615205;39;20585;-71
2021/12/19 00:16:25;;;;;;;0.70;0.70;;;;;;;2.99;63.19;95057.25;2614906;54;20152;-71
2021/12/19 00:18:53;;;;;;;0.30;0.30;;;;;;;3.05;65.69;95052.03;2614464;54;20248;-71
2021/12/19 00:21:31;;;;;;;0.60;0.60;;;;;;;3.10;61.53;95040.53;2615209;54;20133;-72
2021/12/19 00:24:00;;;;;;;0.87;0.83;;;;;;;2.24;61.44;95054.94;2614839;54;20192;-72
2021/12/19 00:26:32;;;;;;;0.40;0.40;;;;;;;2.01;63.30;95028.25;2614901;54;20196;-72
2021/12/19 00:29:03;;;;;;;0.30;0.30;;;;;;;1.87;66.14;95006.97;2614431;54;20275;-71
2021/12/19 00:31:32;;;;;;;0.40;0.40;;;;;;;2.02;65.01;95037.34;2614853;54;20790;-71
2021/12/19 00:34:02;;;;;;;1.67;1.57;;;;;;;1.69;64.07;95037.13;2615333;39;20931;-71
2021/12/19 00:36:39;;;;;;;0.70;0.70;;;;;;;0.88;63.75;94992.19;2614651;47;20187;-71
2021/12/19 00:39:11;;;;;;;0.50;0.50;;;;;;;1.73;65.65;95043.00;2615278;39;20637;-72
2021/12/19 00:41:39;;;;;;;0.60;0.60;;;;;;;1.40;66.22;95017.59;2614701;54;20160;-71
2021/12/19 00:44:14;;;;;;;0.50;0.50;;;;;;;1.63;70.35;94992.03;2614972;47;20151;-71
2021/12/19 00:46:48;;;;;;;0.33;0.33;;;;;;;1.64;66.40;95024.22;2614788;54;20179;-71
2021/12/19 00:49:26;;;;;;;0.70;0.70;;;;;;;1.15;67.64;94950.94;2614933;47;20735;-71
2021/12/19 00:51:58;;;;;;;0.43;0.43;;;;;;;1.00;65.71;94917.78;2615478;54;20183;-72
2021/12/19 00:54:27;;;;;;;0.30;0.30;;;;;;;2.29;63.50;95023.88;2616259;31;20666;-71
2021/12/19 00:56:56;;;;;;;0.40;0.40;;;;;;;2.04;64.24;95035.44;2614999;47;20161;-72
2021/12/19 00:59:25;;;;;;;1.53;1.43;;;;;;;2.09;64.34;95023.19;2615343;39;20518;-72
2021/12/19 01:01:53;;;;;;;0.37;0.37;;;;;;;1.98;64.58;94933.72;2615051;54;20195;-72
2021/12/19 01:04:31;;;;;;;0.40;0.40;;;;;;;1.88;67.73;94938.59;2614791;54;20168;-71
2021/12/19 01:07:03;;;;;;;0.70;0.70;;;;;;;2.08;63.30;94985.41;2611145;31;20630;-71
2021/12/19 01:09:32;;;;;;;0.40;0.40;;;;;;;0.85;64.29;94968.28;2614819;54;20201;-72
2021/12/19 01:12:00;;;;;;;0.40;0.40;;;;;;;1.24;67.26;94955.03;2615198;39;20604;-72
2021/12/19 01:14:29;;;;;;;0.97;0.97;;;;;;;1.98;64.55;94976.34;2614489;47;20169;-72
2021/12/19 01:16:58;;;;;;;0.47;0.47;;;;;;;1.59;65.45;95000.13;2614424;54;20735;-71
2021/12/19 01:19:27;;;;;;;0.50;0.50;;;;;;;1.06;65.87;94965.66;2614773;47;20664;-72
2021/12/19 01:21:55;;;;;;;1.70;0.80;;;;;;;1.81;67.75;95001.66;2614975;31;20729;-70
2021/12/19 01:24:34;;;;;;;1.23;1.23;;;;;;;1.24;65.59;94897.19;2615238;47;20157;-72
2021/12/19 01:27:03;;;;;;;1.00;1.00;;;;;;;1.30;63.97;94896.91;2615446;54;20153;-72
2021/12/19 01:29:35;;;;;;;0.40;0.40;;;;;;;1.62;64.45;94979.41;2615518;54;20161;-72
2021/12/19 01:32:04;;;;;;;0.50;0.50;;;;;;;1.84;65.56;94969.03;2615804;54;20173;-71
2021/12/19 01:34:33;;;;;;;0.77;0.77;;;;;;;1.85;65.68;94981.69;2615768;54;20194;-72
2021/12/19 01:37:01;;;;;;;0.80;0.80;;;;;;;0.92;64.18;94970.19;2616176;39;20587;-71
2021/12/19 01:39:33;;;;;;;0.47;0.47;;;;;;;0.43;70.42;94860.72;2615682;54;20220;-71
2021/12/19 01:42:02;;;;;;;0.47;0.47;;;;;;;1.53;67.56;94985.72;2616609;39;20545;-72
2021/12/19 01:44:30;;;;;;;0.90;0.90;;;;;;;0.52;66.72;94948.44;2615953;47;20229;-72
2021/12/19 01:46:59;;;;;;;0.60;0.60;;;;;;;0.73;69.81;94970.16;2615976;47;20169;-72
2021/12/19 01:49:28;;;;;;;0.57;0.57;;;;;;;1.29;67.81;94977.06;2616314;39;20544;-71
2021/12/19 01:51:57;;;;;;;0.30;0.30;;;;;;;1.45;67.02;94926.53;2616054;47;20767;-72
2021/12/19 01:54:26;;;;;;;0.40;0.40;;;;;;;1.31;64.27;94974.44;2615777;47;20161;-72
2021/12/19 01:56:57;;;;;;;0.70;0.70;;;;;;;0.96;65.13;94892.38;2616088;47;20192;-72
2021/12/19 01:59:26;;;;;;;0.60;0.60;;;;;;;1.29;69.72;94959.59;2615734;54;20161;-71
2021/12/19 02:02:04;;;;;;;0.90;0.90;;;;;;;2.00;67.68;94965.31;2615943;54;20157;-72
2021/12/19 02:04:33;;;;;;;0.50;0.50;;;;;;;1.41;64.50;94957.69;2615889;54;20478;-72
2021/12/19 02:07:04;;;;;;;0.50;0.50;;;;;;;1.32;67.07;94950.06;2615769;46;20175;-73
2021/12/19 02:09:32;;;;;;;0.50;0.50;;;;;;;1.16;67.34;94952.41;2615708;54;20153;-72
2021/12/19 02:12:04;;;;;;;0.63;0.63;;;;;;;1.27;65.10;94926.72;2615646;50;20168;-72
2021/12/19 02:14:33;;;;;;;0.40;0.40;;;;;;;0.98;64.51;94884.91;2615766;54;20554;-72
2021/12/19 02:17:02;;;;;;;0.30;0.30;;;;;;;1.70;69.62;94901.78;2616122;39;20597;-72
2021/12/19 02:19:32;;;;;;;0.50;0.50;;;;;;;1.83;67.90;94943.16;2616383;54;20153;-72
2021/12/19 02:24:44;;;;;;;0.40;0.40;;;;;;;1.79;65.80;94884.25;2615410;54;20288;-74
2021/12/19 02:27:13;;;;;;;0.67;0.67;;;;;;;2.42;65.96;94949.97;2615857;54;20153;-73
2021/12/19 02:29:41;;;;;;;0.50;0.50;;;;;;;1.59;66.97;94931.06;2616122;54;20149;-72
2021/12/19 02:32:10;;;;;;;0.40;0.40;;;;;;;1.21;65.47;94951.41;2616656;31;20675;-72
2021/12/19 02:34:43;;;;;;;0.67;0.67;;;;;;;1.54;68.09;94943.25;2615847;47;20172;-72
2021/12/19 02:37:47;;;;;;;0.50;0.50;;;;;;;0.48;67.39;94839.44;2616068;39;20532;-72
2021/12/19 02:40:32;;;;;;;1.10;1.10;;;;;;;1.51;67.61;94927.69;2615625;54;20165;-73
2021/12/19 02:48:38;;;;;;;0.60;0.60;;;;;;;0.56;68.92;94937.56;2615397;46;20176;-73
2021/12/19 02:51:07;;;;;;;0.73;0.73;;;;;;;0.50;69.21;94937.13;2615606;54;20152;-72
2021/12/19 02:53:40;;;;;;;0.87;0.87;;;;;;;1.20;72.42;94941.56;2615653;39;20498;-73
2021/12/19 02:56:19;;;;;;;0.57;0.57;;;;;;;1.09;68.90;94935.84;2616325;31;20612;-71
2021/12/19 02:58:47;;;;;;;0.70;0.70;;;;;;;0.80;69.01;94931.00;2615430;47;20165;-71
2021/12/19 03:01:20;;;;;;;0.77;0.77;;;;;;;1.42;70.91;94934.03;2615403;54;20160;-72
2021/12/19 03:03:49;;;;;;;1.13;1.13;;;;;;;1.97;69.91;94926.66;2615431;47;20171;-72
2021/12/19 03:06:18;;;;;;;1.00;1.00;;;;;;;2.19;64.39;94919.06;2615478;47;20161;-72
2021/12/19 03:08:51;;;;;;;0.60;0.60;;;;;;;2.02;62.97;94917.22;2615212;54;20766;-71
2021/12/19 03:19:27;;;;;;;0.73;0.73;;;;;;;0.83;69.90;94873.31;2615584;54;20188;-72
2021/12/19 03:21:56;;;;;;;0.40;0.40;;;;;;;0.86;66.26;94884.03;2615073;54;20176;-71
2021/12/19 03:24:28;;;;;;;0.60;0.60;;;;;;;0.82;68.63;94872.59;2615429;54;20161;-72
2021/12/19 03:26:56;;;;;;;0.47;0.47;;;;;;;1.09;68.05;94927.47;2615017;54;20217;-70
2021/12/19 03:29:25;;;;;;;0.37;0.37;;;;;;;0.85;68.67;94837.94;2615100;54;20153;-71
2021/12/19 03:31:59;;;;;;;0.50;0.50;;;;;;;0.65;64.36;94795.44;2614830;54;20169;-71
2021/12/19 03:34:32;;;;;;;1.23;1.23;;;;;;;0.90;64.50;94889.91;2615308;54;20388;-71
2021/12/19 03:37:01;;;;;;;0.53;0.53;;;;;;;1.13;65.40;94905.44;2615254;39;20559;-71
2021/12/19 03:39:44;;;;;;;0.30;0.30;;;;;;;1.02;66.78;94912.34;2615259;39;20571;-72
2021/12/19 03:42:14;;;;;;;0.40;0.40;;;;;;;0.77;69.62;94840.19;2615030;54;20199;-71
2021/12/19 03:44:43;;;;;;;0.53;0.53;;;;;;;1.13;69.23;94911.75;2614983;54;20728;-71
2021/12/19 03:47:12;;;;;;;0.47;0.47;;;;;;;0.89;65.79;94915.59;2614918;54;20153;-72
2021/12/19 03:49:41;;;;;;;0.40;0.40;;;;;;;1.18;69.06;94913.50;2614967;54;20160;-72
2021/12/19 03:52:09;;;;;;;0.40;0.40;;;;;;;1.34;66.97;94906.28;2615387;39;20565;-72
2021/12/19 03:54:41;;;;;;;0.40;0.40;;;;;;;0.24;65.58;94808.53;2614864;54;20684;-72
2021/12/19 03:57:10;;;;;;;1.13;1.13;;;;;;;0.31;64.76;94870.97;2614621;54;20169;-71
2021/12/19 03:59:40;;;;;;;0.40;0.40;;;;;;;1.03;67.89;94869.94;2614911;47;20157;-73
2021/12/19 04:02:09;;;;;;;0.40;0.40;;;;;;;0.84;64.75;94883.16;2615068;54;20156;-71
2021/12/19 04:04:39;;;;;;;0.70;0.70;;;;;;;0.45;66.08;94874.78;2614834;54;20181;-72
2021/12/19 04:07:16;;;;;;;0.87;0.87;;;;;;;0.69;66.34;94823.59;2614975;54;20160;-72
2021/12/19 04:09:48;;;;;;;0.73;0.73;;;;;;;1.21;64.93;94858.59;2614794;47;20265;-72
2021/12/19 04:12:17;;;;;;;0.80;0.80;;;;;;;1.40;63.55;94889.97;2614929;54;20652;-71
2021/12/19 04:14:46;;;;;;;0.30;0.30;;;;;;;1.45;68.36;94868.66;2614784;54;20181;-72
2021/12/19 04:17:15;;;;;;;0.53;0.53;;;;;;;1.47;62.42;94876.44;2614812;54;20292;-72
2021/12/19 04:19:44;;;;;;;0.30;0.30;;;;;;;1.80;65.91;94877.31;2615097;54;20195;-71
2021/12/19 04:22:13;;;;;;;0.43;0.43;;;;;;;0.76;63.85;94863.06;2614916;54;20179;-72
2021/12/19 04:24:41;;;;;;;0.50;0.50;;;;;;;1.30;67.44;94860.63;2614777;47;20697;-72
2021/12/19 04:27:22;;;;;;;1.03;1.03;;;;;;;1.17;63.75;94791.34;2614859;47;20199;-72
2021/12/19 04:29:52;;;;;;;0.60;0.60;;;;;;;1.52;62.53;94858.63;2614716;54;20252;-72
2021/12/19 04:32:25;;;;;;;0.70;0.70;;;;;;;0.63;62.95;94784.16;2614872;47;20173;-72
2021/12/19 04:34:54;;;;;;;0.50;0.50;;;;;;;1.94;68.68;94836.41;2615218;47;20168;-72
2021/12/19 04:37:49;;;;;;;0.93;0.90;;;;;;;1.73;63.15;94825.94;2614876;54;20160;-72
2021/12/19 04:40:20;;;;;;;0.50;0.50;;;;;;;2.23;61.67;94863.44;2614790;47;20187;-73
2021/12/19 04:51:41;;;;;;;0.50;0.50;;;;;;;1.15;65.78;94833.06;2614700;47;20153;-72
2021/12/19 04:54:28;;;;;;;0.53;0.53;;;;;;;0.93;62.26;94768.09;2614802;39;20563;-72
2021/12/19 04:57:20;;;;;;;0.77;0.77;;;;;;;0.88;64.82;94788.66;2614739;54;20180;-72
2021/12/19 05:00:02;;;;;;;0.57;0.57;;;;;;;0.72;65.86;94740.84;2615523;47;20141;-71
2021/12/19 05:02:44;;;;;;;0.50;0.50;;;;;;;0.93;63.98;94809.91;2615552;54;20191;-72
2021/12/19 05:16:22;;;;;;;0.80;0.80;;;;;;;0.74;64.35;94735.41;2615469;46;20652;-72
2021/12/19 05:19:04;;;;;;;0.40;0.40;;;;;;;1.25;66.88;94778.69;2615350;54;20204;-72
2021/12/19 05:21:35;;;;;;;0.50;0.50;;;;;;;1.85;63.80;94853.22;2615703;39;20573;-72
2021/12/19 05:24:20;;;;;;;0.50;0.50;;;;;;;1.04;62.60;94753.53;2615213;47;20715;-71
2021/12/19 05:26:49;;;;;;;1.57;1.57;;;;;;;1.74;66.57;94854.59;2615537;54;20759;-71
2021/12/19 05:29:24;;;;;;;0.70;0.70;;;;;;;2.11;63.28;94852.91;2615565;54;20153;-70
2021/12/19 05:31:58;;;;;;;0.30;0.30;;;;;;;1.79;66.04;94773.28;2615471;47;20160;-71
2021/12/19 05:34:29;;;;;;;0.60;0.60;;;;;;;2.30;61.72;94823.38;2615522;54;20284;-71
2021/12/19 05:45:18;;;;;;;0.87;0.87;;;;;;;0.60;65.36;94840.31;2615531;47;20664;-72
2021/12/19 05:47:52;;;;;;;0.40;0.40;;;;;;;1.23;65.85;94825.97;2615332;47;20176;-71
2021/12/19 05:50:24;;;;;;;0.43;0.43;;;;;;;1.53;66.00;94848.94;2615467;46;20156;-72
2021/12/19 05:52:53;;;;;;;0.70;0.70;;;;;;;0.96;64.43;94848.50;2615367;47;20786;-72
2021/12/19 05:55:22;;;;;;;0.60;0.60;;;;;;;1.62;66.38;94837.75;2615610;47;20164;-72
2021/12/19 05:57:56;;;;;;;0.60;0.60;;;;;;;0.80;66.74;94772.09;2615517;47;20192;-72
2021/12/19 06:00:25;;;;;;;0.43;0.43;;;;;;;1.59;66.91;94774.72;2614921;54;20187;-71
2021/12/19 06:02:59;;;;;;;1.27;1.27;;;;;;;1.50;67.11;94803.44;2615302;54;20179;-71
2021/12/19 06:05:28;;;;;;;0.47;0.47;;;;;;;1.65;64.52;94827.44;2615344;47;20176;-71
2021/12/19 06:07:57;;;;;;;0.70;0.70;;;;;;;1.45;62.70;94826.06;2615274;54;20165;-71
2021/12/19 06:10:29;;;;;;;0.60;0.60;;;;;;;1.62;64.28;94823.06;2615175;47;20212;-71
2021/12/19 06:13:00;;;;;;;0.43;0.43;;;;;;;1.59;62.54;94799.13;2615185;47;20191;-72
2021/12/19 06:15:29;;;;;;;0.40;0.40;;;;;;;1.60;64.45;94815.28;2615349;54;20173;-72
2021/12/19 06:18:00;;;;;;;0.93;0.93;;;;;;;1.02;65.24;94722.69;2615385;54;20715;-72
2021/12/19 06:20:31;;;;;;;0.40;0.40;;;;;;;1.30;65.26;94772.06;2615265;54;20153;-72
2021/12/19 06:23:09;;;;;;;1.10;1.10;;;;;;;1.41;65.04;94735.16;2614894;54;20943;-72
2021/12/19 06:25:45;;;;;;;0.50;0.50;;;;;;;1.77;62.27;94803.88;2615151;54;20160;-73
2021/12/19 06:28:14;;;;;;;1.03;1.03;;;;;;;1.38;65.13;94769.81;2615846;39;20586;-71
2021/12/19 06:30:42;;;;;;;0.63;0.63;;;;;;;1.48;62.44;94788.59;2615462;54;20173;-72
2021/12/19 06:33:20;;;;;;;0.70;0.70;;;;;;;0.90;63.99;94705.88;2616000;39;20535;-71
2021/12/19 06:35:49;;;;;;;0.83;0.83;;;;;;;1.26;62.49;94734.78;2615333;54;20180;-72
2021/12/19 06:38:17;;;;;;;1.53;1.47;;;;;;;1.77;63.18;94794.78;2615414;54;20160;-71
2021/12/19 06:40:46;;;;;;;0.50;0.50;;;;;;;2.40;66.43;94782.13;2615060;47;20168;-71
2021/12/19 06:43:15;;;;;;;0.40;0.40;;;;;;;2.71;60.33;94790.41;2614361;46;20172;-72
2021/12/19 06:45:44;;;;;;;0.50;0.50;;;;;;;2.87;63.38;94776.69;2614967;54;20191;-71
2021/12/19 06:48:15;;;;;;;0.40;0.40;;;;;;;1.91;61.36;94739.84;2614876;47;20164;-72
2021/12/19 06:50:44;;;;;;;0.80;0.80;;;;;;;2.58;59.91;94779.78;2615179;54;20249;-72
2021/12/19 06:53:13;;;;;;;0.60;0.60;;;;;;;1.74;61.64;94695.44;2615108;47;20179;-71
2021/12/19 06:55:41;;;;;;;0.53;0.53;;;;;;;1.90;59.99;94773.97;2614619;47;20200;-71
2021/12/19 06:58:10;;;;;;;0.95;0.95;;;;;;;1.66;61.07;94781.44;2614225;47;20853;-72
2021/12/19 07:00:39;;;;;;;1.07;0.97;;;;;;;1.15;62.90;94752.16;2614583;39;20569;-72
2021/12/19 07:03:09;;;;;;;0.77;0.77;;;;;;;0.95;63.76;94757.09;2614675;47;20182;-72
2021/12/19 07:05:46;;;;;;;0.60;0.60;;;;;;;1.21;64.29;94775.63;2614947;47;20153;-72
2021/12/19 07:08:14;;;;;;;0.50;0.50;;;;;;;1.37;64.56;94771.13;2614858;54;20171;-71
2021/12/19 07:10:43;;;;;;;0.77;0.77;;;;;;;0.88;62.87;94744.03;2613762;54;20754;-71
2021/12/19 07:13:18;;;;;;;0.50;0.50;;;;;;;0.98;63.75;94775.41;2614744;54;20156;-73
2021/12/19 07:15:47;;;;;;;1.40;1.40;;;;;;;1.02;64.05;94756.91;2614592;46;20168;-72
2021/12/19 07:18:16;;;;;;;0.87;0.87;;;;;;;0.56;62.49;94687.47;2614100;54;20252;-72
2021/12/19 07:20:47;;;;;;;0.40;0.40;;;;;;;1.34;61.29;94757.66;2614708;54;20172;-73
2021/12/19 07:23:22;;;;;;;0.80;0.80;;;;;;;1.68;62.94;94781.56;2615706;54;20164;-72
2021/12/19 07:25:51;;;;;;;0.70;0.70;;;;;;;1.79;62.38;94772.53;2614671;54;20267;-71
2021/12/19 07:28:20;;;;;;;0.60;0.60;;;;;;;1.43;61.05;94734.56;2614812;54;20182;-72
2021/12/19 07:30:48;;;;;;;0.93;0.93;;;;;;;1.52;61.98;94766.53;2614514;54;20271;-72
2021/12/19 07:33:17;;;;;;;0.40;0.40;;;;;;;1.26;61.04;94699.25;2614880;54;20160;-72
2021/12/19 07:35:50;;;;;;;2.57;2.47;;;;;;;1.96;63.85;94768.75;2614964;54;20157;-72
2021/12/19 07:38:54;;;;;;;1.35;1.25;;;;;;;1.68;60.61;94683.84;2614907;54;20511;-72
2021/12/19 07:41:32;;;;;;;0.73;0.73;;;;;;;2.42;61.33;94773.88;2615057;47;20153;-71
2021/12/19 07:44:01;;;;;;;1.63;1.23;;;;;;;2.07;59.51;94771.63;2614962;47;20172;-71
2021/12/19 07:46:29;;;;;;;0.77;0.77;;;;;;;2.23;62.52;94768.41;2614959;54;20189;-74
2021/12/19 07:48:58;;;;;;;0.40;0.40;;;;;;;1.65;61.42;94710.91;2614775;54;20152;-72
2021/12/19 07:51:30;;;;;;;0.70;0.70;;;;;;;2.01;61.78;94720.22;2615391;47;20163;-71
2021/12/19 07:53:58;;;;;;;0.63;0.60;;;;;;;2.41;59.27;94769.59;2615054;54;20144;-72
2021/12/19 07:56:37;;;;;;;;;;;;;;;;;;;;;
2021/12/19 07:59:06;;;;;;;0.83;0.83;;;;;;;2.18;62.02;94773.03;2614920;54;21007;-71
2021/12/19 08:01:35;;;;;;;0.70;0.70;;;;;;;1.82;61.07;94746.22;2615122;47;20153;-71
2021/12/19 08:04:04;;;;;;;1.00;0.90;;;;;;;1.86;61.31;94760.47;2615096;47;20177;-73
2021/12/19 08:06:36;;;;;;;0.50;0.50;;;;;;;1.86;61.25;94751.34;2614360;54;20294;-73
2021/12/19 08:09:08;;;;;;;0.80;0.80;;;;;;;2.01;59.82;94748.16;2614902;54;20715;-72
2021/12/19 08:11:44;;;;;;;0.50;0.50;;;;;;;2.62;61.22;94735.28;2615140;47;20683;-72
2021/12/19 08:14:14;;;;;;;2.00;1.90;;;;;;;1.53;62.12;94670.28;2614904;54;20144;-72
2021/12/19 08:16:48;;;;;;;0.93;0.93;;;;;;;0.98;62.60;94602.50;2613437;54;20152;-74
2021/12/19 08:19:17;;;;;;;1.60;1.60;;;;;;;1.87;61.94;94692.09;2612841;47;20165;-72
2021/12/19 08:21:56;;;;;;;0.77;0.77;;;;;;;0.99;60.73;94590.75;2614975;47;20675;-72
2021/12/19 08:24:28;;;;;;;0.50;0.50;;;;;;;2.15;61.99;94709.97;2615131;54;20236;-73
2021/12/19 08:26:57;;;;;;;1.57;1.47;;;;;;;1.89;60.43;94658.00;2614921;54;20653;-72
2021/12/19 08:29:26;;;;;;;0.40;0.40;;;;;;;2.61;61.82;94684.22;2614862;47;20172;-71
2021/12/19 08:31:54;;;;;;;0.70;0.70;;;;;;;2.68;58.61;94699.31;2614862;47;20686;-73
2021/12/19 08:34:23;;;;;;;0.53;0.53;;;;;;;2.71;59.72;94668.06;2615726;47;20172;-72
2021/12/19 08:36:55;;;;;;;0.80;0.80;;;;;;;1.84;59.48;94628.34;2615931;54;20192;-71
2021/12/19 08:39:24;;;;;;;0.80;0.80;;;;;;;2.14;59.19;94694.53;2616225;54;20153;-72
2021/12/19 08:41:53;;;;;;;0.73;0.73;;;;;;;2.09;59.47;94699.13;2615815;54;20183;-72
2021/12/19 08:44:30;;;;;;;1.37;1.37;;;;;;;1.30;60.37;94654.16;2616358;54;20160;-72
2021/12/19 08:46:59;;;;;;;0.50;0.50;;;;;;;1.44;61.68;94632.75;2615959;54;20254;-72
2021/12/19 08:49:28;;;;;;;0.93;0.93;;;;;;;1.76;60.54;94707.47;2615954;47;20165;-72
2021/12/19 08:51:59;;;;;;;0.73;0.73;;;;;;;1.62;60.69;94652.75;2616115;54;20208;-73
2021/12/19 08:54:28;;;;;;;0.60;0.60;;;;;;;2.02;60.94;94690.97;2616112;47;20161;-71
2021/12/19 08:56:57;;;;;;;0.63;0.63;;;;;;;1.74;60.89;94703.81;2616109;54;20137;-72
2021/12/19 08:59:26;;;;;;;1.13;1.13;;;;;;;1.85;61.29;94678.00;2615812;54;20389;-71
2021/12/19 09:01:57;;;;;;;1.00;1.00;;;;;;;1.38;61.53;94665.84;2615834;47;20225;-72
2021/12/19 09:04:28;;;;;;;1.90;1.00;;;;;;;1.64;61.27;94694.78;2615858;54;20176;-73
2021/12/19 09:07:02;;;;;;;0.90;0.70;;;;;;;1.21;61.10;94644.50;2615180;54;20280;-71
2021/12/19 09:09:36;;;;;;;0.70;0.70;;;;;;;1.56;62.52;94691.44;2616056;39;20562;-71
2021/12/19 09:12:09;;;;;;;1.67;1.67;;;;;;;1.26;64.06;94601.59;2615617;54;20152;-72
2021/12/19 09:14:38;;;;;;;0.70;0.70;;;;;;;1.69;62.43;94671.38;2615902;54;20244;-72
2021/12/19 09:17:07;;;;;;;1.00;1.00;;;;;;;1.30;63.04;94635.34;2616233;39;20254;-72
2021/12/19 09:19:36;;;;;;;0.60;0.60;;;;;;;2.10;61.86;94677.50;2616075;54;20416;-71
2021/12/19 09:22:08;;;;;;;0.53;0.53;;;;;;;2.36;60.60;94668.00;2615602;54;20185;-72
2021/12/19 09:24:37;;;;;;;0.90;0.90;;;;;;;2.63;58.90;94641.66;2615483;47;20449;-73
2021/12/19 09:27:07;;;;;;;2.30;1.27;;;;;;;2.62;60.52;94668.91;2615519;54;20172;-72
2021/12/19 09:29:44;;;;;;;1.00;1.00;;;;;;;1.23;61.35;94541.41;2615263;47;20168;-73
2021/12/19 09:32:12;;;;;;;0.90;0.90;;;;;;;1.78;63.40;94593.09;2616742;54;20846;-73
2021/12/19 09:34:41;;;;;;;0.40;0.40;;;;;;;2.05;61.92;94659.03;2616402;47;20204;-73
2021/12/19 09:37:12;;;;;;;0.40;0.40;;;;;;;1.86;61.24;94609.66;2615419;54;20172;-73
2021/12/19 09:39:42;;;;;;;0.87;0.87;;;;;;;2.21;59.89;94620.19;2614926;39;20604;-72
2021/12/19 09:42:11;;;;;;;0.33;0.33;;;;;;;2.22;62.29;94641.22;2613202;47;20180;-72
2021/12/19 09:44:41;;;;;;;0.55;0.55;;;;;;;1.99;61.16;94616.75;2614030;47;20401;-71
2021/12/19 09:47:11;;;;;;;1.00;1.00;;;;;;;2.38;62.13;94633.84;2614996;54;20216;-71
2021/12/19 09:49:47;;;;;;;0.30;0.30;;;;;;;2.30;61.72;94585.84;2613621;54;20173;-73
2021/12/19 09:52:19;;;;;;;0.90;0.70;;;;;;;2.65;59.67;94595.00;2614602;54;20195;-71
2021/12/19 09:54:48;;;;;;;1.63;1.53;;;;;;;2.91;60.57;94617.47;2614332;54;20184;-70
2021/12/19 09:57:17;;;;;;;0.40;0.40;;;;;;;3.03;60.20;94604.94;2614558;54;20156;-71
2021/12/19 09:59:48;;;;;;;0.60;0.60;;;;;;;2.39;59.60;94551.47;2614359;47;20249;-70
2021/12/19 10:02:17;;;;;;;1.00;1.00;;;;;;;2.73;60.57;94595.47;2615675;54;20146;-70
2021/12/19 10:04:56;;;;;;;1.77;1.67;;;;;;;3.05;62.35;94596.69;2615386;54;20411;-72
2021/12/19 10:07:29;;;;;;;0.83;0.83;;;;;;;2.66;59.90;94548.91;2615683;54;20159;-70
2021/12/19 10:10:02;;;;;;;1.70;0.50;;;;;;;2.50;60.11;94579.41;2614761;54;20269;-71
2021/12/19 10:12:48;;;;;;;0.80;0.80;;;;;;;3.09;62.74;94579.41;2614367;47;20199;-70
2021/12/19 10:15:20;;;;;;;0.40;0.40;;;;;;;3.13;62.55;94572.00;2613627;50;20164;-69
2021/12/19 10:17:55;;;;;;;1.30;1.30;;;;;;;3.05;61.21;94567.97;2613566;47;20236;-70
2021/12/19 10:20:24;;;;;;;0.60;0.60;;;;;;;2.89;62.06;94567.75;2613479;54;20215;-72
2021/12/19 10:22:56;;;;;;;2.17;2.07;;;;;;;2.90;61.76;94566.41;2615025;54;20303;-71
2021/12/19 10:25:27;;;;;;;1.80;1.80;;;;;;;2.17;60.78;94457.91;2614896;54;20161;-71
2021/12/19 10:28:08;;;;;;;;;;;;;;;;;;;;;
2021/12/19 10:30:43;;;;;;;3.30;2.17;;;;;;;2.31;62.21;94525.81;2615096;54;20157;-69
2021/12/19 10:33:14;;;;;;;0.83;0.83;;;;;;;2.43;61.65;94532.16;2615745;54;20171;-72
2021/12/19 10:35:46;;;;;;;0.83;0.70;;;;;;;2.71;62.82;94514.28;2614655;54;20190;-78
2021/12/19 10:38:20;;;;;;;4.83;1.43;;;;;;;2.47;62.63;94454.09;2615697;39;20526;-76
2021/12/19 10:40:58;;;;;;;2.53;2.00;;;;;;;3.27;61.19;94518.91;2615273;39;20555;-75
2021/12/19 10:43:31;;;;;;;0.77;0.77;;;;;;;3.26;61.46;94539.84;2614950;39;20561;-75
2021/12/19 10:46:02;;;;;;;3.07;2.87;;;;;;;3.10;60.99;94508.84;2615466;54;20169;-78
2021/12/19 10:48:34;;;;;;;0.93;0.93;;;;;;;2.52;61.27;94446.69;2615472;54;20160;-77
2021/12/19 10:51:08;;;;;;;2.50;0.70;;;;;;;3.11;61.07;94531.97;2615181;54;20703;-76
2021/12/19 10:53:44;;;;;;;0.63;0.63;;;;;;;2.65;62.20;94524.34;2615139;54;21765;-76
2021/12/19 10:56:17;;;;;;;0.57;0.57;;;;;;;2.21;62.62;94508.44;2614777;54;20204;-77
2021/12/19 10:58:52;;;;;;;0.60;0.60;;;;;;;2.40;64.87;94503.34;2614973;46;20188;-76
2021/12/19 11:01:29;;;;;;;1.43;1.43;;;;;;;1.69;62.29;94417.31;2615620;54;20695;-77
2021/12/19 11:04:01;;;;;;;0.80;0.80;;;;;;;2.11;65.39;94402.38;2615870;54;20146;-75
2021/12/19 11:06:44;;;;;;;0.50;0.50;;;;;;;2.56;60.29;94444.16;2616088;39;20540;-74
2021/12/19 11:09:18;;;;;;;0.60;0.60;;;;;;;2.87;60.76;94475.31;2615121;47;20726;-71
2021/12/19 11:11:59;;;;;;;1.17;1.17;;;;;;;2.89;60.99;94492.22;2615223;54;20166;-78
2021/12/19 11:14:32;;;;;;;0.57;0.57;;;;;;;0.80;61.87;94233.31;2612600;47;20292;-76
2021/12/19 11:17:15;;;;;;;0.90;0.90;;;;;;;2.48;61.92;94498.22;2615039;54;20153;-79
2021/12/19 11:22:53;;;;;;;1.13;1.13;;;;;;;2.20;60.38;94356.81;2612552;47;20388;-73
2021/12/19 11:25:25;;;;;;;0.60;0.60;;;;;;;2.74;60.82;94470.34;2614810;47;20165;-72
2021/12/19 11:27:54;;;;;;;0.60;0.60;;;;;;;2.39;60.48;94397.75;2615167;54;20670;-71
2021/12/19 11:30:24;;;;;;;0.60;0.60;;;;;;;2.40;61.01;94413.91;2615188;47;20165;-72
2021/12/19 11:33:15;;;;;;;1.00;1.00;;;;;;;2.87;63.04;94424.25;2615021;54;20170;-70
2021/12/19 11:35:54;;;;;;;3.60;0.90;;;;;;;3.28;61.05;94413.28;2615000;54;20196;-76
2021/12/19 11:42:14;;;;;;;1.23;1.13;;;;;;;0.60;60.95;94096.25;2614381;47;20181;-76
2021/12/19 11:45:02;;;;;;;0.83;0.83;;;;;;;2.94;60.19;94451.97;2615550;54;20172;-75
2021/12/19 11:48:00;;;;;;;2.47;2.30;;;;;;;2.39;61.64;94364.22;2614970;47;20167;-75
2021/12/19 11:50:36;;;;;;;0.53;0.53;;;;;;;1.71;62.68;94269.47;2615178;47;20157;-74
2021/12/19 11:53:23;;;;;;;1.27;1.27;;;;;;;2.72;59.93;94384.31;2612915;54;20181;-74
2021/12/19 11:56:18;;;;;;;0.90;0.90;;;;;;;1.99;59.90;94268.34;2616144;47;20213;-81
2021/12/19 11:58:50;;;;;;;1.40;1.40;;;;;;;3.00;61.10;94437.59;2615860;47;20170;-82
2021/12/19 12:01:27;;;;;;;1.53;1.53;;;;;;;2.76;60.47;94423.66;2615010;47;20218;-74
2021/12/19 12:04:30;;;;;;;0.50;0.50;;;;;;;2.30;60.97;94373.47;2614824;54;20281;-71
2021/12/19 12:07:07;;;;;;;6.17;0.90;;;;;;;2.47;62.83;94412.19;2615345;54;20160;-82
2021/12/19 12:09:43;;;;;;;0.60;0.60;;;;;;;1.99;62.38;94270.41;2615422;39;20585;-72
2021/12/19 12:12:36;;;;;;;1.17;1.07;;;;;;;2.84;60.97;94382.19;2614531;39;20420;-71
2021/12/19 12:15:43;;;;;;;0.60;0.60;;;;;;;1.36;61.79;94196.97;2614645;54;20176;-73
2021/12/19 12:18:36;;;;;;;0.40;0.40;;;;;;;2.58;60.74;94347.16;2614468;47;20193;-72
2021/12/19 12:21:48;;;;;;;0.73;0.73;;;;;;;2.21;62.44;94316.38;2615045;54;20154;-82
2021/12/19 12:24:32;;;;;;;0.37;0.37;;;;;;;2.99;60.94;94397.72;2615282;54;20751;-72
2021/12/19 12:27:05;;;;;;;0.70;0.70;;;;;;;2.73;60.83;94331.91;2614782;54;20169;-74
